sensor_id;sensor_type;location;lat;lon;timestamp;pressure;altitude;pressure_sealevel;temperature;humidity
18813;BME280;9534;51.140;6.296;2023-02-19T00:02:46;100936.53;;;10.19;100.00
18813;BME280;9534;51.140;6.296;2023-02-19T00:06:51;100935.41;;;10.13;100.00
18813;BME280;9534;51.140;6.296;2023-02-19T00:10:59;100930.81;;;10.14;100.00
18813;BME280;9534;51.140;6.296;2023-02-19T00:15:05;100930.81;;;10.14;100.00
18813;BME280;9534;51.140;6.296;2023-02-19T00:19:12;100933.53;;;10.14;100.00
18813;BME280;9534;51.140;6.296;2023-02-19T00:23:16;100907.25;;;10.13;100.00
18813;BME280;9534;51.140;6.296;2023-02-19T00:27:19;100918.59;;;10.16;100.00
18813;BME280;9534;51.140;6.296;2023-02-19T00:31:27;100915.22;;;10.14;100.00
18813;BME280;9534;51.140;6.296;2023-02-19T00:35:34;100924.53;;;10.20;100.00
18813;BME280;9534;51.140;6.296;2023-02-19T00:39:37;100918.66;;;10.23;100.00
18813;BME280;9534;51.140;6.296;2023-02-19T00:43:41;100910.25;;;10.24;100.00
18813;BME280;9534;51.140;6.296;2023-02-19T00:47:46;100913.22;;;10.29;100.00
18813;BME280;9534;51.140;6.296;2023-02-19T00:51:50;100900.41;;;10.30;100.00
18813;BME280;9534;51.140;6.296;2023-02-19T00:55:54;100912.38;;;10.29;100.00
18813;BME280;9534;51.140;6.296;2023-02-19T00:59:59;100906.47;;;10.32;100.00
18813;BME280;9534;51.140;6.296;2023-02-19T01:04:04;100902.69;;;10.33;100.00
18813;BME280;9534;51.140;6.296;2023-02-19T01:08:08;100893.44;;;10.34;100.00
18813;BME280;9534;51.140;6.296;2023-02-19T01:12:11;100877.69;;;10.36;100.00
18813;BME280;9534;51.140;6.296;2023-02-19T01:16:16;100883.38;;;10.41;100.00
18813;BME280;9534;51.140;6.296;2023-02-19T01:20:21;100892.25;;;10.43;100.00
18813;BME280;9534;51.140;6.296;2023-02-19T01:24:24;100879.66;;;10.48;100.00
18813;BME280;9534;51.140;6.296;2023-02-19T01:28:28;100894.81;;;10.51;100.00
18813;BME280;9534;51.140;6.296;2023-02-19T01:32:31;100888.06;;;10.47;100.00
18813;BME280;9534;51.140;6.296;2023-02-19T01:36:36;100884.50;;;10.53;100.00
18813;BME280;9534;51.140;6.296;2023-02-19T01:40:41;100898.59;;;10.50;100.00
18813;BME280;9534;51.140;6.296;2023-02-19T01:49:30;100923.44;;;10.48;100.00
18813;BME280;9534;51.140;6.296;2023-02-19T01:53:38;100905.75;;;10.51;100.00
18813;BME280;9534;51.140;6.296;2023-02-19T01:57:45;100909.53;;;10.50;100.00
18813;BME280;9534;51.140;6.296;2023-02-19T02:01:51;100900.28;;;10.51;100.00
18813;BME280;9534;51.140;6.296;2023-02-19T02:05:56;100904.69;;;10.52;100.00
18813;BME280;9534;51.140;6.296;2023-02-19T02:10:04;100896.91;;;10.49;100.00
18813;BME280;9534;51.140;6.296;2023-02-19T02:14:24;100906.56;;;10.45;100.00
18813;BME280;9534;51.140;6.296;2023-02-19T02:18:44;100911.22;;;10.51;100.00
18813;BME280;9534;51.140;6.296;2023-02-19T02:22:59;100899.63;;;10.49;100.00
18813;BME280;9534;51.140;6.296;2023-02-19T02:27:28;100893.75;;;10.52;100.00
18813;BME280;9534;51.140;6.296;2023-02-19T02:31:38;100894.81;;;10.51;100.00
18813;BME280;9534;51.140;6.296;2023-02-19T02:35:47;100891.44;;;10.49;100.00
18813;BME280;9534;51.140;6.296;2023-02-19T02:39:56;100894.81;;;10.51;100.00
18813;BME280;9534;51.140;6.296;2023-02-19T02:44:00;100880.72;;;10.47;100.00
18813;BME280;9534;51.140;6.296;2023-02-19T02:48:14;100904.47;;;10.47;100.00
18813;BME280;9534;51.140;6.296;2023-02-19T02:52:20;100909.94;;;10.47;100.00
18813;BME280;9534;51.140;6.296;2023-02-19T02:56:38;100907.44;;;10.52;100.00
18813;BME280;9534;51.140;6.296;2023-02-19T03:00:46;100898.19;;;10.53;100.00
18813;BME280;9534;51.140;6.296;2023-02-19T03:05:13;100896.91;;;10.49;100.00
18813;BME280;9534;51.140;6.296;2023-02-19T03:09:36;100905.09;;;10.49;100.00
18813;BME280;9534;51.140;6.296;2023-02-19T03:13:43;100920.69;;;10.48;100.00
18813;BME280;9534;51.140;6.296;2023-02-19T03:18:07;100902.38;;;10.49;100.00
18813;BME280;9534;51.140;6.296;2023-02-19T03:22:33;100909.94;;;10.47;100.00
18813;BME280;9534;51.140;6.296;2023-02-19T03:26:40;100917.09;;;10.48;100.00
18813;BME280;9534;51.140;6.296;2023-02-19T03:30:46;100920.88;;;10.40;100.00
18813;BME280;9534;51.140;6.296;2023-02-19T03:34:55;100928.44;;;10.38;100.00
18813;BME280;9534;51.140;6.296;2023-02-19T03:39:05;100936.19;;;10.35;100.00
18813;BME280;9534;51.140;6.296;2023-02-19T03:43:16;100942.69;;;10.34;100.00
18813;BME280;9534;51.140;6.296;2023-02-19T03:47:25;100929.22;;;10.26;100.00
18813;BME280;9534;51.140;6.296;2023-02-19T03:51:33;100939.53;;;10.03;100.00
18813;BME280;9534;51.140;6.296;2023-02-19T03:55:48;100970.56;;;9.95;100.00
18813;BME280;9534;51.140;6.296;2023-02-19T03:59:59;100968.25;;;9.92;100.00
18813;BME280;9534;51.140;6.296;2023-02-19T04:04:17;100996.19;;;9.88;100.00
18813;BME280;9534;51.140;6.296;2023-02-19T04:08:22;100986.28;;;9.87;100.00
18813;BME280;9534;51.140;6.296;2023-02-19T04:12:35;100995.91;;;9.83;100.00
18813;BME280;9534;51.140;6.296;2023-02-19T04:16:44;101000.34;;;9.84;100.00
18813;BME280;9534;51.140;6.296;2023-02-19T04:20:49;101005.38;;;9.81;100.00
18813;BME280;9534;51.140;6.296;2023-02-19T04:24:53;101004.91;;;9.77;100.00
18813;BME280;9534;51.140;6.296;2023-02-19T04:29:00;101010.75;;;9.74;100.00
18813;BME280;9534;51.140;6.296;2023-02-19T04:33:05;101020.88;;;9.74;100.00
18813;BME280;9534;51.140;6.296;2023-02-19T04:37:08;101011.53;;;9.68;100.00
18813;BME280;9534;51.140;6.296;2023-02-19T04:41:12;101022.47;;;9.68;100.00
18813;BME280;9534;51.140;6.296;2023-02-19T04:45:17;101025.97;;;9.62;100.00
18813;BME280;9534;51.140;6.296;2023-02-19T04:49:21;101032.75;;;9.66;100.00
18813;BME280;9534;51.140;6.296;2023-02-19T04:53:24;101032.09;;;9.64;100.00
18813;BME280;9534;51.140;6.296;2023-02-19T04:57:28;101036.25;;;9.60;100.00
18813;BME280;9534;51.140;6.296;2023-02-19T05:01:32;101049.28;;;9.58;100.00
18813;BME280;9534;51.140;6.296;2023-02-19T05:05:36;101050.31;;;9.57;100.00
18813;BME280;9534;51.140;6.296;2023-02-19T05:09:39;101054.47;;;9.53;100.00
18813;BME280;9534;51.140;6.296;2023-02-19T05:13:43;101060.97;;;9.52;100.00
18813;BME280;9534;51.140;6.296;2023-02-19T05:17:47;101069.38;;;9.51;100.00
18813;BME280;9534;51.140;6.296;2023-02-19T05:21:51;101074.84;;;9.51;100.00
18813;BME280;9534;51.140;6.296;2023-02-19T05:25:54;101077.09;;;9.47;100.00
18813;BME280;9534;51.140;6.296;2023-02-19T05:29:57;101083.16;;;9.43;100.00
18813;BME280;9534;51.140;6.296;2023-02-19T05:34:02;101086.91;;;9.42;100.00
18813;BME280;9534;51.140;6.296;2023-02-19T05:38:05;101094.00;;;9.36;100.00
18813;BME280;9534;51.140;6.296;2023-02-19T05:42:08;101103.25;;;9.35;100.00
18813;BME280;9534;51.140;6.296;2023-02-19T05:46:13;101104.94;;;9.36;100.00
18813;BME280;9534;51.140;6.296;2023-02-19T05:50:18;101104.94;;;9.36;100.00
18813;BME280;9534;51.140;6.296;2023-02-19T05:54:22;101114.53;;;9.32;100.00
18813;BME280;9534;51.140;6.296;2023-02-19T05:58:25;101113.88;;;9.30;100.00
18813;BME280;9534;51.140;6.296;2023-02-19T06:02:29;101117.00;;;9.27;100.00
18813;BME280;9534;51.140;6.296;2023-02-19T06:06:33;101117.38;;;9.24;100.00
18813;BME280;9534;51.140;6.296;2023-02-19T06:10:38;101119.72;;;9.27;100.00
18813;BME280;9534;51.140;6.296;2023-02-19T06:14:42;101124.72;;;9.24;100.00
18813;BME280;9534;51.140;6.296;2023-02-19T06:18:45;101129.34;;;9.23;100.00
18813;BME280;9534;51.140;6.296;2023-02-19T06:22:50;101123.22;;;9.21;100.00
18813;BME280;9534;51.140;6.296;2023-02-19T06:26:53;101130.75;;;9.19;100.00
18813;BME280;9534;51.140;6.296;2023-02-19T06:30:57;101129.44;;;9.15;100.00
18813;BME280;9534;51.140;6.296;2023-02-19T06:35:00;101137.63;;;9.15;100.00
18813;BME280;9534;51.140;6.296;2023-02-19T06:39:06;101153.34;;;9.13;100.00
18813;BME280;9534;51.140;6.296;2023-02-19T06:43:09;101164.66;;;9.10;100.00
18813;BME280;9534;51.140;6.296;2023-02-19T06:47:12;101156.47;;;9.10;100.00
18813;BME280;9534;51.140;6.296;2023-02-19T06:51:18;101161.91;;;9.10;100.00
18813;BME280;9534;51.140;6.296;2023-02-19T06:55:26;101172.19;;;9.08;100.00
18813;BME280;9534;51.140;6.296;2023-02-19T06:59:29;101189.88;;;9.12;100.00
18813;BME280;9534;51.140;6.296;2023-02-19T07:03:32;101184.41;;;9.12;100.00
18813;BME280;9534;51.140;6.296;2023-02-19T07:07:36;101199.75;;;9.13;100.00
18813;BME280;9534;51.140;6.296;2023-02-19T07:11:40;101192.78;;;9.11;100.00
18813;BME280;9534;51.140;6.296;2023-02-19T07:15:44;101215.13;;;9.14;100.00
18813;BME280;9534;51.140;6.296;2023-02-19T07:19:47;101211.34;;;9.15;100.00
18813;BME280;9534;51.140;6.296;2023-02-19T07:23:51;101213.03;;;9.16;100.00
18813;BME280;9534;51.140;6.296;2023-02-19T07:27:55;101226.31;;;9.19;100.00
18813;BME280;9534;51.140;6.296;2023-02-19T07:31:58;101220.66;;;9.21;100.00
18813;BME280;9534;51.140;6.296;2023-02-19T07:36:02;101234.16;;;9.22;100.00
18813;BME280;9534;51.140;6.296;2023-02-19T07:40:08;101244.69;;;9.25;100.00
18813;BME280;9534;51.140;6.296;2023-02-19T07:44:13;101245.34;;;9.27;100.00
18813;BME280;9534;51.140;6.296;2023-02-19T07:48:17;101260.72;;;9.28;100.00
18813;BME280;9534;51.140;6.296;2023-02-19T07:52:21;101268.69;;;9.30;100.00
18813;BME280;9534;51.140;6.296;2023-02-19T07:56:25;101264.38;;;9.35;100.00
18813;BME280;9534;51.140;6.296;2023-02-19T08:00:31;101272.00;;;9.40;100.00
18813;BME280;9534;51.140;6.296;2023-02-19T08:04:34;101291.63;;;9.43;100.00
18813;BME280;9534;51.140;6.296;2023-02-19T08:08:37;101283.03;;;9.46;100.00
18813;BME280;9534;51.140;6.296;2023-02-19T08:12:41;101285.88;;;9.53;100.00
18813;BME280;9534;51.140;6.296;2023-02-19T08:17:03;101290.50;;;9.67;100.00
18813;BME280;9534;51.140;6.296;2023-02-19T08:21:07;101289.16;;;9.77;100.00
18813;BME280;9534;51.140;6.296;2023-02-19T08:25:13;101297.84;;;9.81;100.00
18813;BME280;9534;51.140;6.296;2023-02-19T08:29:16;101292.19;;;9.82;100.00
18813;BME280;9534;51.140;6.296;2023-02-19T08:33:21;101298.13;;;9.85;100.00
18813;BME280;9534;51.140;6.296;2023-02-19T08:37:24;101295.00;;;9.74;100.00
18813;BME280;9534;51.140;6.296;2023-02-19T08:41:27;101287.09;;;9.79;100.00
18813;BME280;9534;51.140;6.296;2023-02-19T08:45:31;101300.47;;;9.74;100.00
18813;BME280;9534;51.140;6.296;2023-02-19T08:49:35;101304.69;;;9.62;100.00
18813;BME280;9534;51.140;6.296;2023-02-19T08:53:39;101317.25;;;9.42;100.00
18813;BME280;9534;51.140;6.296;2023-02-19T08:57:43;101325.16;;;9.37;100.00
18813;BME280;9534;51.140;6.296;2023-02-19T09:01:46;101321.53;;;9.22;100.00
18813;BME280;9534;51.140;6.296;2023-02-19T09:05:51;101332.16;;;9.17;100.00
18813;BME280;9534;51.140;6.296;2023-02-19T09:09:54;101328.56;;;9.17;100.00
18813;BME280;9534;51.140;6.296;2023-02-19T09:13:58;101335.25;;;9.14;100.00
18813;BME280;9534;51.140;6.296;2023-02-19T09:18:03;101352.97;;;9.18;100.00
18813;BME280;9534;51.140;6.296;2023-02-19T09:22:08;101354.84;;;9.18;100.00
18813;BME280;9534;51.140;6.296;2023-02-19T09:26:11;101357.41;;;9.19;100.00
18813;BME280;9534;51.140;6.296;2023-02-19T09:30:15;101370.31;;;9.25;100.00
18813;BME280;9534;51.140;6.296;2023-02-19T09:34:18;101370.13;;;9.27;100.00
18813;BME280;9534;51.140;6.296;2023-02-19T09:38:23;101362.44;;;9.30;100.00
18813;BME280;9534;51.140;6.296;2023-02-19T09:42:28;101379.97;;;9.50;100.00
18813;BME280;9534;51.140;6.296;2023-02-19T09:46:37;101375.66;;;9.41;100.00
18813;BME280;9534;51.140;6.296;2023-02-19T09:50:46;101375.16;;;9.38;100.00
18813;BME280;9534;51.140;6.296;2023-02-19T09:54:53;101387.69;;;9.47;100.00
18813;BME280;9534;51.140;6.296;2023-02-19T09:59:00;101398.34;;;9.56;100.00
18813;BME280;9534;51.140;6.296;2023-02-19T10:03:04;101401.09;;;9.56;100.00
18813;BME280;9534;51.140;6.296;2023-02-19T10:07:11;101393.69;;;9.65;100.00
18813;BME280;9534;51.140;6.296;2023-02-19T10:11:17;101403.38;;;9.67;100.00
18813;BME280;9534;51.140;6.296;2023-02-19T10:15:25;101413.94;;;9.70;100.00
18813;BME280;9534;51.140;6.296;2023-02-19T10:19:30;101433.59;;;9.88;100.00
18813;BME280;9534;51.140;6.296;2023-02-19T10:23:34;101425.88;;;10.06;100.00
18813;BME280;9534;51.140;6.296;2023-02-19T10:27:38;101421.63;;;10.03;100.00
18813;BME280;9534;51.140;6.296;2023-02-19T10:31:41;101429.06;;;9.95;100.00
18813;BME280;9534;51.140;6.296;2023-02-19T10:35:53;101444.06;;;9.84;100.00
18813;BME280;9534;51.140;6.296;2023-02-19T10:39:56;101449.19;;;9.65;100.00
18813;BME280;9534;51.140;6.296;2023-02-19T10:44:04;101470.50;;;9.47;100.00
18813;BME280;9534;51.140;6.296;2023-02-19T10:48:20;101479.31;;;9.57;100.00
18813;BME280;9534;51.140;6.296;2023-02-19T10:52:29;101487.00;;;9.76;100.00
18813;BME280;9534;51.140;6.296;2023-02-19T10:56:35;101494.09;;;9.85;100.00
18813;BME280;9534;51.140;6.296;2023-02-19T11:00:43;101492.91;;;10.02;100.00
18813;BME280;9534;51.140;6.296;2023-02-19T11:05:02;101492.41;;;10.21;100.00
18813;BME280;9534;51.140;6.296;2023-02-19T11:09:22;101498.25;;;10.32;100.00
18813;BME280;9534;51.140;6.296;2023-02-19T11:13:29;101499.56;;;10.51;100.00
18813;BME280;9534;51.140;6.296;2023-02-19T11:17:35;101484.00;;;10.66;100.00
18813;BME280;9534;51.140;6.296;2023-02-19T11:21:38;101478.13;;;10.83;100.00
18813;BME280;9534;51.140;6.296;2023-02-19T11:25:44;101459.63;;;11.41;100.00
18813;BME280;9534;51.140;6.296;2023-02-19T11:29:48;101437.75;;;11.48;100.00
18813;BME280;9534;51.140;6.296;2023-02-19T11:33:58;101419.81;;;11.66;100.00
18813;BME280;9534;51.140;6.296;2023-02-19T11:38:01;101395.91;;;11.81;100.00
18813;BME280;9534;51.140;6.296;2023-02-19T11:42:19;101379.84;;;11.57;100.00
18813;BME280;9534;51.140;6.296;2023-02-19T11:46:40;101383.53;;;11.22;100.00
18813;BME280;9534;51.140;6.296;2023-02-19T11:51:04;101386.28;;;11.02;100.00
18813;BME280;9534;51.140;6.296;2023-02-19T11:55:17;101372.72;;;10.94;100.00
18813;BME280;9534;51.140;6.296;2023-02-19T11:59:31;101401.81;;;10.95;100.00
18813;BME280;9534;51.140;6.296;2023-02-19T12:04:07;101395.66;;;10.93;100.00
18813;BME280;9534;51.140;6.296;2023-02-19T12:08:33;101403.50;;;10.96;100.00
18813;BME280;9534;51.140;6.296;2023-02-19T12:12:54;101415.38;;;11.03;100.00
18813;BME280;9534;51.140;6.296;2023-02-19T12:17:07;101404.44;;;11.03;100.00
18813;BME280;9534;51.140;6.296;2023-02-19T12:21:23;101405.59;;;11.14;100.00
18813;BME280;9534;51.140;6.296;2023-02-19T12:25:42;101404.41;;;11.23;100.00
18813;BME280;9534;51.140;6.296;2023-02-19T12:30:02;101405.19;;;11.17;100.00
18813;BME280;9534;51.140;6.296;2023-02-19T12:34:34;101409.81;;;10.96;100.00
18813;BME280;9534;51.140;6.296;2023-02-19T12:38:43;101406.91;;;10.98;100.00
18813;BME280;9534;51.140;6.296;2023-02-19T12:43:00;101404.16;;;10.98;100.00
18813;BME280;9534;51.140;6.296;2023-02-19T12:47:06;101420.19;;;11.21;100.00
18813;BME280;9534;51.140;6.296;2023-02-19T12:51:17;101408.31;;;11.35;100.00
18813;BME280;9534;51.140;6.296;2023-02-19T12:55:25;101407.63;;;11.27;100.00
18813;BME280;9534;51.140;6.296;2023-02-19T12:59:35;101417.47;;;11.01;100.00
18813;BME280;9534;51.140;6.296;2023-02-19T13:03:42;101435.66;;;10.73;100.00
18813;BME280;9534;51.140;6.296;2023-02-19T13:07:54;101434.84;;;10.72;100.00
18813;BME280;9534;51.140;6.296;2023-02-19T13:12:03;101437.88;;;10.48;100.00
18813;BME280;9534;51.140;6.296;2023-02-19T13:16:16;101449.09;;;10.39;100.00
18813;BME280;9534;51.140;6.296;2023-02-19T13:20:24;101479.25;;;10.02;100.00
18813;BME280;9534;51.140;6.296;2023-02-19T13:24:32;101495.56;;;9.73;100.00
18813;BME280;9534;51.140;6.296;2023-02-19T13:28:47;101501.72;;;9.53;100.00
18813;BME280;9534;51.140;6.296;2023-02-19T13:33:02;101521.31;;;9.56;100.00
18813;BME280;9534;51.140;6.296;2023-02-19T13:37:07;101517.69;;;9.64;100.00
18813;BME280;9534;51.140;6.296;2023-02-19T13:41:24;101523.94;;;9.72;100.00
18813;BME280;9534;51.140;6.296;2023-02-19T13:45:32;101519.81;;;9.76;100.00
18813;BME280;9534;51.140;6.296;2023-02-19T13:49:40;101501.34;;;9.78;100.00
18813;BME280;9534;51.140;6.296;2023-02-19T13:53:57;101511.97;;;9.73;100.00
18813;BME280;9534;51.140;6.296;2023-02-19T14:02:42;101525.34;;;9.68;100.00
18813;BME280;9534;51.140;6.296;2023-02-19T14:12:04;101551.41;;;9.79;100.00
18813;BME280;9534;51.140;6.296;2023-02-19T14:16:28;101558.75;;;9.78;100.00
18813;BME280;9534;51.140;6.296;2023-02-19T14:20:42;101559.59;;;9.79;100.00
18813;BME280;9534;51.140;6.296;2023-02-19T14:24:48;101547.06;;;9.84;100.00
18813;BME280;9534;51.140;6.296;2023-02-19T14:28:54;101544.41;;;9.76;100.00
18813;BME280;9534;51.140;6.296;2023-02-19T14:33:00;101552.81;;;9.75;100.00
18813;BME280;9534;51.140;6.296;2023-02-19T14:37:16;101566.53;;;9.67;100.00
18813;BME280;9534;51.140;6.296;2023-02-19T14:41:22;101573.31;;;9.71;100.00
18813;BME280;9534;51.140;6.296;2023-02-19T14:45:28;101582.63;;;9.84;100.00
18813;BME280;9534;51.140;6.296;2023-02-19T14:49:39;101567.44;;;9.82;100.00
18813;BME280;9534;51.140;6.296;2023-02-19T14:53:44;101563.53;;;9.76;100.00
18813;BME280;9534;51.140;6.296;2023-02-19T14:57:51;101569.19;;;9.75;100.00
18813;BME280;9534;51.140;6.296;2023-02-19T15:01:58;101568.34;;;9.74;100.00
18813;BME280;9534;51.140;6.296;2023-02-19T15:06:06;101563.53;;;9.76;100.00
18813;BME280;9534;51.140;6.296;2023-02-19T15:10:12;101571.75;;;9.76;100.00
18813;BME280;9534;51.140;6.296;2023-02-19T15:14:20;101548.72;;;9.71;100.00
18813;BME280;9534;51.140;6.296;2023-02-19T15:18:26;101543.78;;;9.66;100.00
18813;BME280;9534;51.140;6.296;2023-02-19T15:22:31;101541.63;;;9.62;100.00
18813;BME280;9534;51.140;6.296;2023-02-19T15:26:37;101527.97;;;9.62;100.00
18813;BME280;9534;51.140;6.296;2023-02-19T15:30:41;101527.03;;;9.69;100.00
18813;BME280;9534;51.140;6.296;2023-02-19T15:34:54;101516.09;;;9.69;100.00
18813;BME280;9534;51.140;6.296;2023-02-19T15:38:59;101504.44;;;9.75;100.00
18813;BME280;9534;51.140;6.296;2023-02-19T15:43:04;101484.94;;;9.78;100.00
18813;BME280;9534;51.140;6.296;2023-02-19T15:47:13;101479.16;;;9.73;100.00
18813;BME280;9534;51.140;6.296;2023-02-19T15:51:22;101471.91;;;9.66;100.00
18813;BME280;9534;51.140;6.296;2023-02-19T15:55:32;101471.78;;;9.59;100.00
18813;BME280;9534;51.140;6.296;2023-02-19T15:59:40;101476.19;;;9.60;100.00
18813;BME280;9534;51.140;6.296;2023-02-19T16:03:46;101472.03;;;9.50;100.00
18813;BME280;9534;51.140;6.296;2023-02-19T16:08:07;101474.00;;;9.41;100.00
18813;BME280;9534;51.140;6.296;2023-02-19T16:12:19;101469.72;;;9.39;100.00
18813;BME280;9534;51.140;6.296;2023-02-19T16:16:25;101493.53;;;9.30;100.00
18813;BME280;9534;51.140;6.296;2023-02-19T16:20:32;101496.25;;;9.30;100.00
18813;BME280;9534;51.140;6.296;2023-02-19T16:24:41;101500.38;;;9.26;100.00
18813;BME280;9534;51.140;6.296;2023-02-19T16:28:49;101506.72;;;9.19;100.00
18813;BME280;9534;51.140;6.296;2023-02-19T16:33:19;101514.13;;;9.10;100.00
18813;BME280;9534;51.140;6.296;2023-02-19T16:37:33;101505.16;;;9.02;100.00
18813;BME280;9534;51.140;6.296;2023-02-19T16:42:11;101497.50;;;8.97;100.00
18813;BME280;9534;51.140;6.296;2023-02-19T16:46:15;101513.22;;;8.87;100.00
18813;BME280;9534;51.140;6.296;2023-02-19T16:50:21;101533.38;;;8.86;100.00
18813;BME280;9534;51.140;6.296;2023-02-19T16:54:25;101529.13;;;8.84;100.00
18813;BME280;9534;51.140;6.296;2023-02-19T16:58:30;101548.75;;;8.79;100.00
18813;BME280;9534;51.140;6.296;2023-02-19T17:02:33;101557.16;;;8.70;100.00
18813;BME280;9534;51.140;6.296;2023-02-19T17:06:37;101559.72;;;8.63;100.00
18813;BME280;9534;51.140;6.296;2023-02-19T17:10:41;101573.69;;;8.60;100.00
18813;BME280;9534;51.140;6.296;2023-02-19T17:14:45;101569.66;;;8.57;100.00
18813;BME280;9534;51.140;6.296;2023-02-19T17:18:49;101570.97;;;8.60;100.00
18813;BME280;9534;51.140;6.296;2023-02-19T17:22:53;101582.09;;;8.51;100.00
18813;BME280;9534;51.140;6.296;2023-02-19T17:26:56;101584.84;;;8.43;100.00
18813;BME280;9534;51.140;6.296;2023-02-19T17:31:00;101587.41;;;8.37;100.00
18813;BME280;9534;51.140;6.296;2023-02-19T17:35:04;101589.13;;;8.38;100.00
18813;BME280;9534;51.140;6.296;2023-02-19T17:39:12;101582.47;;;8.32;100.00
18813;BME280;9534;51.140;6.296;2023-02-19T17:43:16;101584.00;;;8.35;100.00
18813;BME280;9534;51.140;6.296;2023-02-19T17:47:22;101593.91;;;8.36;100.00
18813;BME280;9534;51.140;6.296;2023-02-19T17:51:25;101602.25;;;8.34;100.00
18813;BME280;9534;51.140;6.296;2023-02-19T17:55:29;101621.19;;;8.28;100.00
18813;BME280;9534;51.140;6.296;2023-02-19T17:59:32;101624.59;;;8.30;100.00
18813;BME280;9534;51.140;6.296;2023-02-19T18:03:36;101621.88;;;8.30;100.00
18813;BME280;9534;51.140;6.296;2023-02-19T18:07:40;101615.00;;;8.26;100.00
18813;BME280;9534;51.140;6.296;2023-02-19T18:11:44;101619.47;;;8.27;100.00
18813;BME280;9534;51.140;6.296;2023-02-19T18:15:47;101621.31;;;8.18;100.00
18813;BME280;9534;51.140;6.296;2023-02-19T18:19:52;101622.50;;;8.08;100.00
18813;BME280;9534;51.140;6.296;2023-02-19T18:23:56;101635.44;;;7.90;100.00
18813;BME280;9534;51.140;6.296;2023-02-19T18:27:59;101630.31;;;7.87;100.00
18813;BME280;9534;51.140;6.296;2023-02-19T18:32:02;101631.19;;;7.87;100.00
18813;BME280;9534;51.140;6.296;2023-02-19T18:36:10;101624.72;;;7.80;100.00
18813;BME280;9534;51.140;6.296;2023-02-19T18:40:13;101621.81;;;7.74;100.00
18813;BME280;9534;51.140;6.296;2023-02-19T18:44:18;101606.50;;;7.73;100.00
18813;BME280;9534;51.140;6.296;2023-02-19T18:48:22;101614.47;;;7.58;100.00
18813;BME280;9534;51.140;6.296;2023-02-19T18:52:27;101622.47;;;7.52;100.00
18813;BME280;9534;51.140;6.296;2023-02-19T18:56:30;101626.50;;;7.40;100.00
18813;BME280;9534;51.140;6.296;2023-02-19T19:00:34;101627.16;;;7.34;100.00
18813;BME280;9534;51.140;6.296;2023-02-19T19:04:38;101642.13;;;7.30;100.00
18813;BME280;9534;51.140;6.296;2023-02-19T19:08:43;101646.53;;;7.23;100.00
18813;BME280;9534;51.140;6.296;2023-02-19T19:12:48;101648.03;;;7.18;100.00
18813;BME280;9534;51.140;6.296;2023-02-19T19:16:52;101647.13;;;7.09;100.00
18813;BME280;9534;51.140;6.296;2023-02-19T19:20:55;101672.84;;;7.07;100.00
18813;BME280;9534;51.140;6.296;2023-02-19T19:25:06;101680.63;;;7.02;100.00
18813;BME280;9534;51.140;6.296;2023-02-19T19:29:10;101684.38;;;7.01;100.00
18813;BME280;9534;51.140;6.296;2023-02-19T19:33:15;101678.06;;;7.00;100.00
18813;BME280;9534;51.140;6.296;2023-02-19T19:37:18;101680.09;;;6.98;100.00
18813;BME280;9534;51.140;6.296;2023-02-19T19:41:23;101672.56;;;6.92;100.00
18813;BME280;9534;51.140;6.296;2023-02-19T19:45:26;101671.53;;;6.93;100.00
18813;BME280;9534;51.140;6.296;2023-02-19T19:49:30;101669.84;;;6.92;100.00
18813;BME280;9534;51.140;6.296;2023-02-19T19:53:34;101666.78;;;6.87;100.00
18813;BME280;9534;51.140;6.296;2023-02-19T19:57:38;101681.72;;;6.83;100.00
18813;BME280;9534;51.140;6.296;2023-02-19T20:01:47;101683.53;;;6.75;100.00
18813;BME280;9534;51.140;6.296;2023-02-19T20:05:51;101686.72;;;6.70;100.00
18813;BME280;9534;51.140;6.296;2023-02-19T20:09:55;101705.06;;;6.68;100.00
18813;BME280;9534;51.140;6.296;2023-02-19T20:13:59;101707.09;;;6.66;100.00
18813;BME280;9534;51.140;6.296;2023-02-19T20:18:02;101713.63;;;6.73;100.00
18813;BME280;9534;51.140;6.296;2023-02-19T20:22:06;101700.34;;;6.70;100.00
18813;BME280;9534;51.140;6.296;2023-02-19T20:26:09;101704.69;;;6.63;100.00
18813;BME280;9534;51.140;6.296;2023-02-19T20:30:15;101701.44;;;6.60;100.00
18813;BME280;9534;51.140;6.296;2023-02-19T20:34:18;101698.66;;;6.52;100.00
18813;BME280;9534;51.140;6.296;2023-02-19T20:38:22;101708.31;;;6.46;100.00
18813;BME280;9534;51.140;6.296;2023-02-19T20:42:26;101710.63;;;6.41;100.00
18813;BME280;9534;51.140;6.296;2023-02-19T20:46:30;101711.91;;;6.29;100.00
18813;BME280;9534;51.140;6.296;2023-02-19T20:50:33;101725.41;;;6.21;100.00
18813;BME280;9534;51.140;6.296;2023-02-19T20:54:37;101742.13;;;5.92;100.00
18813;BME280;9534;51.140;6.296;2023-02-19T20:58:40;101758.34;;;6.01;100.00
18813;BME280;9534;51.140;6.296;2023-02-19T21:02:48;101762.84;;;5.93;100.00
18813;BME280;9534;51.140;6.296;2023-02-19T21:06:51;101754.81;;;5.91;100.00
18813;BME280;9534;51.140;6.296;2023-02-19T21:10:55;101758.72;;;5.89;100.00
18813;BME280;9534;51.140;6.296;2023-02-19T21:14:58;101742.69;;;5.86;100.00
18813;BME280;9534;51.140;6.296;2023-02-19T21:19:03;101751.28;;;5.81;100.00
18813;BME280;9534;51.140;6.296;2023-02-19T21:23:06;101757.19;;;5.77;100.00
18813;BME280;9534;51.140;6.296;2023-02-19T21:27:09;101748.78;;;5.70;100.00
18813;BME280;9534;51.140;6.296;2023-02-19T21:31:12;101756.09;;;5.70;100.00
18813;BME280;9534;51.140;6.296;2023-02-19T21:35:17;101748.84;;;5.61;100.00
18813;BME280;9534;51.140;6.296;2023-02-19T21:39:21;101746.13;;;5.61;100.00
18813;BME280;9534;51.140;6.296;2023-02-19T21:43:27;101737.97;;;5.61;100.00
18813;BME280;9534;51.140;6.296;2023-02-19T21:47:30;101746.34;;;5.50;100.00
18813;BME280;9534;51.140;6.296;2023-02-19T21:51:37;101745.72;;;5.56;100.00
18813;BME280;9534;51.140;6.296;2023-02-19T21:55:41;101748.09;;;5.41;100.00
18813;BME280;9534;51.140;6.296;2023-02-19T21:59:59;101744.69;;;5.39;100.00